Time;durP1;ratioP1;P1;durP2;ratioP2;P2;SDS_P1;SDS_P2;PMS_P1;PMS_P2;Temp;Humidity;BMP_temperature;BMP_pressure;BME280_temperature;BME280_humidity;BME280_pressure;Samples;Min_cycle;Max_cycle;Signal;HPM_P1;HPM_P2
2022/04/14 00:02:23;;;;;;;26.95;12.82;;;;;;;;;;6257346;28;20041;-73
2022/04/14 00:05:24;;;;;;;31.77;15.00;;;;;;;;;;6245905;28;20390;-76
2022/04/14 00:08:26;;;;;;;28.20;15.18;;;;;;;;;;6255789;28;20614;-73
2022/04/14 00:11:28;;;;;;;27.58;14.70;;;;;;;;;;6256732;28;20057;-73
2022/04/14 00:14:29;;;;;;;23.67;14.13;;;;;;;;;;6255275;28;20118;-71
2022/04/14 00:17:33;;;;;;;28.67;15.27;;;;;;;;;;6253036;28;20438;-71
2022/04/14 00:20:35;;;;;;;29.33;14.68;;;;;;;;;;6250593;28;20049;-72
2022/04/14 00:23:36;;;;;;;29.08;13.85;;;;;;;;;;6255884;28;20518;-71
2022/04/14 00:26:38;;;;;;;25.80;14.65;;;;;;;;;;6256306;28;20077;-73
2022/04/14 00:29:40;;;;;;;25.58;13.68;;;;;;;;;;6257547;28;20172;-73
2022/04/14 00:32:42;;;;;;;27.50;15.10;;;;;;;;;;6256527;28;20076;-72
2022/04/14 00:35:44;;;;;;;26.93;13.93;;;;;;;;;;6257869;28;20051;-72
2022/04/14 00:38:46;;;;;;;23.48;12.73;;;;;;;;;;6259418;28;20455;-72
2022/04/14 00:41:47;;;;;;;24.95;13.55;;;;;;;;;;6260230;28;20067;-71
2022/04/14 00:44:49;;;;;;;22.67;13.38;;;;;;;;;;6266153;28;20072;-70
2022/04/14 00:47:54;;;;;;;24.67;13.15;;;;;;;;;;6259239;28;20092;-71
2022/04/14 00:50:55;;;;;;;23.33;13.95;;;;;;;;;;6260691;28;20405;-70
2022/04/14 00:53:57;;;;;;;25.50;14.07;;;;;;;;;;6266175;28;20065;-75
2022/04/14 00:56:59;;;;;;;26.73;13.45;;;;;;;;;;6259137;28;20096;-70
2022/04/14 01:00:01;;;;;;;25.63;13.40;;;;;;;;;;6263090;28;20048;-70
2022/04/14 01:03:04;;;;;;;26.52;13.80;;;;;;;;;;6254354;28;20068;-71
2022/04/14 01:06:05;;;;;;;27.97;13.63;;;;;;;;;;6256483;28;20056;-71
2022/04/14 01:09:19;;;;;;;31.52;14.35;;;;;;;;;;6261936;28;20128;-70
2022/04/14 01:12:20;;;;;;;30.92;14.40;;;;;;;;;;6258866;28;20057;-70
2022/04/14 01:15:22;;;;;;;22.70;12.48;;;;;;;;;;6257196;28;20053;-71
2022/04/14 01:18:25;;;;;;;28.67;13.63;;;;;;;;;;6261313;28;20049;-69
2022/04/14 01:21:28;;;;;;;23.83;12.68;;;;;;;;;;6260504;28;20135;-71
2022/04/14 01:24:31;;;;;;;24.13;12.75;;;;;;;;;;6259307;28;20179;-71
2022/04/14 01:27:33;;;;;;;24.13;13.40;;;;;;;;;;6257939;28;20562;-72
2022/04/14 01:30:36;;;;;;;22.20;12.55;;;;;;;;;;6258864;28;20128;-71
2022/04/14 01:33:37;;;;;;;24.77;13.43;;;;;;;;;;6260063;28;20064;-71
2022/04/14 01:36:39;;;;;;;21.90;12.80;;;;;;;;;;6261800;28;20185;-72
2022/04/14 01:39:42;;;;;;;30.17;15.60;;;;;;;;;;6263755;28;20057;-71
2022/04/14 01:42:44;;;;;;;27.10;15.95;;;;;;;;;;6262431;28;20051;-71
2022/04/14 01:45:50;;;;;;;33.47;21.02;;;;;;;;;;6260693;28;20053;-71
2022/04/14 01:48:52;;;;;;;42.78;24.65;;;;;;;;;;6263457;28;20064;-71
2022/04/14 01:51:54;;;;;;;46.58;27.75;;;;;;;;;;6262657;28;20128;-71
2022/04/14 01:54:57;;;;;;;44.92;25.45;;;;;;;;;;6263464;28;20088;-72
2022/04/14 01:57:58;;;;;;;43.28;24.58;;;;;;;;;;6267417;28;20405;-71
2022/04/14 02:01:00;;;;;;;38.08;23.55;;;;;;;;;;6264304;28;20053;-72
2022/04/14 02:04:02;;;;;;;37.70;21.50;;;;;;;;;;6259372;28;20045;-72
2022/04/14 02:07:05;;;;;;;37.03;20.63;;;;;;;;;;6255287;28;20195;-71
2022/04/14 02:10:08;;;;;;;38.60;20.33;;;;;;;;;;6256466;28;20507;-71
2022/04/14 02:13:10;;;;;;;34.92;20.83;;;;;;;;;;6257599;28;20853;-71
2022/04/14 02:16:11;;;;;;;38.08;20.35;;;;;;;;;;6255494;28;20134;-71
2022/04/14 02:19:13;;;;;;;35.05;19.85;;;;;;;;;;6253741;28;20053;-71
2022/04/14 02:22:15;;;;;;;33.22;17.42;;;;;;;;;;6253665;28;20061;-71
2022/04/14 02:25:18;;;;;;;35.88;18.20;;;;;;;;;;6252778;28;20045;-72
2022/04/14 02:28:20;;;;;;;29.42;17.58;;;;;;;;;;6254544;28;20183;-72
2022/04/14 02:31:21;;;;;;;35.67;17.40;;;;;;;;;;6254729;28;20536;-72
2022/04/14 02:34:23;;;;;;;31.75;17.92;;;;;;;;;;6260189;28;20151;-71
2022/04/14 02:37:24;;;;;;;30.25;16.83;;;;;;;;;;6258100;28;20049;-72
2022/04/14 02:40:27;;;;;;;30.25;16.58;;;;;;;;;;6258416;28;20040;-72
2022/04/14 02:43:29;;;;;;;30.93;17.43;;;;;;;;;;6257432;28;20152;-71
2022/04/14 02:46:31;;;;;;;29.92;17.08;;;;;;;;;;6256818;28;20536;-71
2022/04/14 02:49:32;;;;;;;32.20;16.88;;;;;;;;;;6259932;28;20064;-71
2022/04/14 02:52:34;;;;;;;27.35;15.60;;;;;;;;;;6261541;28;20400;-71
2022/04/14 02:55:37;;;;;;;31.80;16.13;;;;;;;;;;6262109;28;20144;-72
2022/04/14 02:58:39;;;;;;;32.30;16.25;;;;;;;;;;6258803;28;20068;-72
2022/04/14 03:01:40;;;;;;;25.25;14.65;;;;;;;;;;6261417;28;20085;-71
2022/04/14 03:04:42;;;;;;;26.23;14.15;;;;;;;;;;6253602;28;20500;-72
2022/04/14 03:07:43;;;;;;;24.65;14.40;;;;;;;;;;6255333;28;20774;-71
2022/04/14 03:10:46;;;;;;;25.60;15.10;;;;;;;;;;6259062;28;20083;-71
2022/04/14 03:13:48;;;;;;;28.17;15.55;;;;;;;;;;6257566;28;20176;-71
2022/04/14 03:16:50;;;;;;;26.95;16.08;;;;;;;;;;6257901;28;20040;-71
2022/04/14 03:19:51;;;;;;;24.25;14.57;;;;;;;;;;6260373;28;20071;-71
2022/04/14 03:22:53;;;;;;;27.20;14.77;;;;;;;;;;6258466;28;20432;-71
2022/04/14 03:25:56;;;;;;;32.67;15.18;;;;;;;;;;6253559;28;20437;-71
2022/04/14 03:28:58;;;;;;;23.90;14.10;;;;;;;;;;6254888;28;20075;-72
2022/04/14 03:31:59;;;;;;;23.92;14.13;;;;;;;;;;6253657;28;20082;-72
2022/04/14 03:35:03;;;;;;;31.75;13.57;;;;;;;;;;6257187;28;20627;-71
2022/04/14 03:38:05;;;;;;;;;;;;;;;;;;6257212;28;20455;-71
2022/04/14 03:41:08;;;;;;;22.83;13.68;;;;;;;;;;6257025;28;19932;-72
2022/04/14 03:44:10;;;;;;;21.90;12.68;;;;;;;;;;6255174;28;20553;-72
2022/04/14 03:47:12;;;;;;;25.25;14.07;;;;;;;;;;6255582;28;20181;-71
2022/04/14 03:50:13;;;;;;;26.42;13.73;;;;;;;;;;6255161;28;20187;-72
2022/04/14 03:53:15;;;;;;;33.85;15.88;;;;;;;;;;6256866;28;20178;-72
2022/04/14 03:56:18;;;;;;;25.90;14.70;;;;;;;;;;6255663;28;20056;-72
2022/04/14 03:59:20;;;;;;;26.35;14.63;;;;;;;;;;6251393;28;20057;-72
2022/04/14 04:02:22;;;;;;;25.63;13.98;;;;;;;;;;6254472;28;20049;-72
2022/04/14 04:05:24;;;;;;;22.67;14.85;;;;;;;;;;6259580;28;20080;-72
2022/04/14 04:08:25;;;;;;;26.02;14.35;;;;;;;;;;6254758;28;20534;-72
2022/04/14 04:11:28;;;;;;;27.38;15.68;;;;;;;;;;6258588;28;20394;-72
2022/04/14 04:14:30;;;;;;;31.38;16.70;;;;;;;;;;6263808;28;20091;-72
2022/04/14 04:17:31;;;;;;;34.47;16.05;;;;;;;;;;6257936;28;20543;-72
2022/04/14 04:20:33;;;;;;;26.90;15.57;;;;;;;;;;6258683;28;20542;-72
2022/04/14 04:23:35;;;;;;;33.17;17.85;;;;;;;;;;6259173;28;20503;-72
2022/04/14 04:26:38;;;;;;;27.65;16.48;;;;;;;;;;6261757;28;20052;-72
2022/04/14 04:29:39;;;;;;;31.80;17.43;;;;;;;;;;6261027;28;20057;-72
2022/04/14 04:32:41;;;;;;;27.42;16.73;;;;;;;;;;6262983;28;20063;-72
2022/04/14 04:35:43;;;;;;;29.58;17.73;;;;;;;;;;6262993;28;20056;-72
2022/04/14 04:38:45;;;;;;;31.15;17.08;;;;;;;;;;6261327;28;20053;-72
2022/04/14 04:41:48;;;;;;;29.73;16.75;;;;;;;;;;6260833;28;20119;-72
2022/04/14 04:44:50;;;;;;;25.35;15.95;;;;;;;;;;6264499;28;20049;-72
2022/04/14 04:47:51;;;;;;;25.92;16.75;;;;;;;;;;6263914;28;20582;-72
2022/04/14 04:50:53;;;;;;;29.17;17.08;;;;;;;;;;6262913;28;20056;-72
2022/04/14 04:53:54;;;;;;;30.27;16.80;;;;;;;;;;6263902;28;20175;-72
2022/04/14 04:56:57;;;;;;;30.05;16.85;;;;;;;;;;6266363;28;20172;-71
2022/04/14 04:59:59;;;;;;;29.73;17.15;;;;;;;;;;6258509;28;20118;-72
2022/04/14 05:03:01;;;;;;;29.90;17.48;;;;;;;;;;6253190;28;20407;-72
2022/04/14 05:06:02;;;;;;;27.85;17.30;;;;;;;;;;6256422;28;20045;-71
2022/04/14 05:09:04;;;;;;;31.80;17.88;;;;;;;;;;6259797;28;20092;-72
2022/04/14 05:12:09;;;;;;;28.60;16.60;;;;;;;;;;6256612;28;20398;-71
2022/04/14 05:15:11;;;;;;;30.15;18.23;;;;;;;;;;6258891;28;20060;-71
2022/04/14 05:18:12;;;;;;;28.20;17.25;;;;;;;;;;6258047;28;20045;-70
2022/04/14 05:21:14;;;;;;;31.05;18.05;;;;;;;;;;6257215;28;20057;-71
2022/04/14 05:24:16;;;;;;;28.55;17.65;;;;;;;;;;6257448;28;20132;-71
2022/04/14 05:27:19;;;;;;;30.83;17.92;;;;;;;;;;6259524;28;20045;-71
2022/04/14 05:30:20;;;;;;;29.17;17.67;;;;;;;;;;6261391;28;20114;-71
2022/04/14 05:33:22;;;;;;;30.48;18.23;;;;;;;;;;6261058;28;20056;-71
2022/04/14 05:36:24;;;;;;;31.27;17.85;;;;;;;;;;6258010;28;20050;-72
2022/04/14 05:39:26;;;;;;;31.23;17.40;;;;;;;;;;6256982;28;20052;-71
2022/04/14 05:42:29;;;;;;;28.25;17.63;;;;;;;;;;6256144;28;20401;-70
2022/04/14 05:45:32;;;;;;;29.20;18.17;;;;;;;;;;6256421;28;20068;-69
2022/04/14 05:48:34;;;;;;;30.93;18.03;;;;;;;;;;6263875;28;20069;-69
2022/04/14 05:51:35;;;;;;;27.45;17.00;;;;;;;;;;6256488;28;20483;-70
2022/04/14 05:54:37;;;;;;;33.33;17.90;;;;;;;;;;6257928;28;20092;-69
2022/04/14 05:57:40;;;;;;;32.45;17.83;;;;;;;;;;6256226;28;20050;-69
2022/04/14 06:00:42;;;;;;;35.43;17.03;;;;;;;;;;6251485;28;20045;-68
2022/04/14 06:03:44;;;;;;;29.13;18.27;;;;;;;;;;6256045;28;20417;-68
2022/04/14 06:06:45;;;;;;;26.35;16.70;;;;;;;;;;6257297;28;20127;-69
2022/04/14 06:09:47;;;;;;;35.15;17.38;;;;;;;;;;6255215;28;20095;-69
2022/04/14 06:12:51;;;;;;;33.80;16.33;;;;;;;;;;6255983;28;20056;-68
2022/04/14 06:15:52;;;;;;;30.10;17.27;;;;;;;;;;6254128;28;20053;-68
2022/04/14 06:18:54;;;;;;;31.58;15.52;;;;;;;;;;6256036;28;20493;-69
2022/04/14 06:21:55;;;;;;;29.73;15.65;;;;;;;;;;6255745;28;20246;-68
2022/04/14 06:24:57;;;;;;;27.42;16.00;;;;;;;;;;6257519;28;20053;-69
2022/04/14 06:28:01;;;;;;;32.95;15.30;;;;;;;;;;6254330;28;20072;-69
2022/04/14 06:31:02;;;;;;;31.10;16.17;;;;;;;;;;6256897;28;20064;-68
2022/04/14 06:34:05;;;;;;;33.83;16.58;;;;;;;;;;6259430;28;20084;-69
2022/04/14 06:37:06;;;;;;;31.90;15.65;;;;;;;;;;6256252;28;20095;-69
2022/04/14 06:40:09;;;;;;;29.73;15.93;;;;;;;;;;6261605;28;20674;-69
2022/04/14 06:43:12;;;;;;;27.30;14.83;;;;;;;;;;6261390;28;20186;-69
2022/04/14 06:46:14;;;;;;;29.50;15.87;;;;;;;;;;6262566;28;20060;-70
2022/04/14 06:49:16;;;;;;;23.17;15.75;;;;;;;;;;6262412;28;20795;-70
2022/04/14 06:52:18;;;;;;;27.52;15.82;;;;;;;;;;6259915;28;20052;-70
2022/04/14 06:55:21;;;;;;;25.58;16.10;;;;;;;;;;6261025;28;20457;-71
2022/04/14 06:58:24;;;;;;;26.48;16.20;;;;;;;;;;6260415;28;20049;-72
2022/04/14 07:01:25;;;;;;;25.45;16.05;;;;;;;;;;6258780;28;20053;-71
2022/04/14 07:04:27;;;;;;;29.98;16.13;;;;;;;;;;6259812;28;20091;-71
2022/04/14 07:07:29;;;;;;;31.30;17.23;;;;;;;;;;6255615;28;20091;-71
2022/04/14 07:10:31;;;;;;;28.08;16.55;;;;;;;;;;6260005;28;20409;-72
2022/04/14 07:13:34;;;;;;;26.77;17.33;;;;;;;;;;6254024;28;20135;-72
2022/04/14 07:16:35;;;;;;;30.33;17.60;;;;;;;;;;6259088;28;20045;-71
2022/04/14 07:19:37;;;;;;;33.83;18.30;;;;;;;;;;6255703;28;20041;-71
2022/04/14 07:22:42;;;;;;;36.05;19.48;;;;;;;;;;6252936;28;20128;-72
2022/04/14 07:25:44;;;;;;;30.92;18.00;;;;;;;;;;6254656;28;20049;-72
2022/04/14 07:28:47;;;;;;;28.85;18.58;;;;;;;;;;6254573;28;20049;-72
2022/04/14 07:31:50;;;;;;;32.00;17.73;;;;;;;;;;6256700;28;20072;-72
2022/04/14 07:34:52;;;;;;;29.63;17.20;;;;;;;;;;6253409;28;20037;-72
2022/04/14 07:37:54;;;;;;;30.17;18.03;;;;;;;;;;6259394;28;20518;-72
2022/04/14 07:40:56;;;;;;;28.95;17.40;;;;;;;;;;6257803;28;20115;-72
2022/04/14 07:43:59;;;;;;;28.25;17.23;;;;;;;;;;6257820;28;20045;-72
2022/04/14 07:47:00;;;;;;;29.42;18.05;;;;;;;;;;6263725;28;20138;-72
2022/04/14 07:50:02;;;;;;;40.33;19.70;;;;;;;;;;6264798;28;20063;-73
2022/04/14 07:53:04;;;;;;;32.30;19.30;;;;;;;;;;6261808;28;20489;-72
2022/04/14 07:56:06;;;;;;;33.20;17.42;;;;;;;;;;6264648;28;20513;-71
2022/04/14 07:59:09;;;;;;;29.25;17.15;;;;;;;;;;6259064;28;20140;-71
2022/04/14 08:02:11;;;;;;;30.70;17.05;;;;;;;;;;6259726;28;20061;-71
2022/04/14 08:05:12;;;;;;;34.15;17.02;;;;;;;;;;6259505;28;20182;-71
2022/04/14 08:08:15;;;;;;;35.13;18.63;;;;;;;;;;6262654;28;20053;-71
2022/04/14 08:11:17;;;;;;;30.65;18.58;;;;;;;;;;6260659;28;20117;-73
2022/04/14 08:14:20;;;;;;;29.88;17.73;;;;;;;;;;6264179;28;20045;-70
2022/04/14 08:17:21;;;;;;;34.15;20.17;;;;;;;;;;6264148;28;20049;-71
2022/04/14 08:20:23;;;;;;;33.30;19.00;;;;;;;;;;6263062;28;20179;-71
2022/04/14 08:23:25;;;;;;;31.33;18.48;;;;;;;;;;6261382;28;20485;-71
2022/04/14 08:26:27;;;;;;;32.42;18.58;;;;;;;;;;6259903;28;20076;-72
2022/04/14 08:29:30;;;;;;;27.92;17.33;;;;;;;;;;6260186;28;20077;-71
2022/04/14 08:32:34;;;;;;;33.92;18.23;;;;;;;;;;6259673;28;20060;-72
2022/04/14 08:35:36;;;;;;;29.65;17.02;;;;;;;;;;6258553;28;20049;-72
2022/04/14 08:38:37;;;;;;;28.23;18.00;;;;;;;;;;6256130;28;20121;-72
2022/04/14 08:41:41;;;;;;;31.25;18.65;;;;;;;;;;6261301;28;20061;-72
2022/04/14 08:44:48;;;;;;;32.13;17.58;;;;;;;;;;6259110;28;20045;-72
2022/04/14 08:47:50;;;;;;;34.20;19.25;;;;;;;;;;6258381;28;20051;-72
2022/04/14 08:50:52;;;;;;;35.00;18.45;;;;;;;;;;6262529;28;20608;-72
2022/04/14 08:53:54;;;;;;;30.27;19.13;;;;;;;;;;6262366;28;20195;-73
2022/04/14 08:56:58;;;;;;;35.97;18.75;;;;;;;;;;6253636;28;20567;-73
2022/04/14 09:00:01;;;;;;;31.25;18.83;;;;;;;;;;6257697;28;20045;-72
2022/04/14 09:03:04;;;;;;;37.85;18.95;;;;;;;;;;6256635;28;20404;-72
2022/04/14 09:06:07;;;;;;;41.55;18.05;;;;;;;;;;6255860;28;20135;-73
2022/04/14 09:09:08;;;;;;;;;;;;;;;;;;6256673;28;20508;-73
2022/04/14 09:12:11;;;;;;;32.70;19.00;;;;;;;;;;6257847;28;20639;-73
2022/04/14 09:15:14;;;;;;;32.60;18.70;;;;;;;;;;6259985;28;20110;-73
2022/04/14 09:18:17;;;;;;;30.73;18.67;;;;;;;;;;6258648;28;20049;-73
2022/04/14 09:21:19;;;;;;;;;;;;;;;;;;6260816;28;20045;-72
2022/04/14 09:24:38;;;;;;;32.42;19.23;;;;;;;;;;6259815;28;19929;-73
2022/04/14 09:27:41;;;;;;;35.17;18.88;;;;;;;;;;6263008;28;20064;-73
2022/04/14 09:30:58;;;;;;;31.20;18.85;;;;;;;;;;6255871;28;20033;-73
2022/04/14 09:34:00;;;;;;;33.28;18.25;;;;;;;;;;6257530;28;20490;-73
2022/04/14 09:37:08;;;;;;;30.17;17.70;;;;;;;;;;6263081;28;20496;-72
2022/04/14 09:40:11;;;;;;;32.75;18.17;;;;;;;;;;6251606;28;20049;-72
2022/04/14 09:43:13;;;;;;;32.33;19.08;;;;;;;;;;6261053;28;20052;-71
2022/04/14 09:46:19;;;;;;;36.50;19.30;;;;;;;;;;6252690;28;20210;-71
2022/04/14 09:49:21;;;;;;;33.50;19.58;;;;;;;;;;6261060;28;20053;-74
2022/04/14 09:52:22;;;;;;;35.00;18.20;;;;;;;;;;6261632;28;20135;-73
2022/04/14 09:55:24;;;;;;;33.53;18.67;;;;;;;;;;6258789;28;20546;-73
2022/04/14 09:58:26;;;;;;;32.22;19.05;;;;;;;;;;6259623;28;20131;-73
2022/04/14 10:01:29;;;;;;;40.10;17.63;;;;;;;;;;6254950;28;20163;-73
2022/04/14 10:04:32;;;;;;;32.65;17.73;;;;;;;;;;6257140;28;20059;-74
2022/04/14 10:07:34;;;;;;;32.40;17.63;;;;;;;;;;6258184;28;20125;-73
2022/04/14 10:10:37;;;;;;;28.65;18.40;;;;;;;;;;6254640;28;20077;-75
2022/04/14 10:13:42;;;;;;;29.58;17.48;;;;;;;;;;6253198;28;20554;-75
2022/04/14 10:16:46;;;;;;;36.80;18.60;;;;;;;;;;6252869;28;20057;-75
2022/04/14 10:19:48;;;;;;;28.23;17.05;;;;;;;;;;6253170;28;20136;-76
2022/04/14 10:22:50;;;;;;;28.27;18.35;;;;;;;;;;6252550;28;20516;-74
2022/04/14 10:25:53;;;;;;;32.30;18.35;;;;;;;;;;6253961;28;20152;-74
2022/04/14 10:28:55;;;;;;;29.83;17.88;;;;;;;;;;6255231;28;20520;-76
2022/04/14 10:31:58;;;;;;;;;;;;;;;;;;6262264;28;20052;-75
2022/04/14 10:35:00;;;;;;;32.95;18.52;;;;;;;;;;6254606;28;19985;-76
2022/04/14 10:38:03;;;;;;;;;;;;;;;;;;6258731;28;20618;-74
2022/04/14 10:41:12;;;;;;;31.23;17.63;;;;;;;;;;6253534;28;19931;-73
2022/04/14 10:44:14;;;;;;;23.63;15.00;;;;;;;;;;6260562;28;20048;-73
2022/04/14 10:47:34;;;;;;;;;;;;;;;;;;6263256;28;20041;-68
2022/04/14 10:50:37;;;;;;;22.17;12.93;;;;;;;;;;6264548;28;20054;-68
2022/04/14 10:53:48;;;;;;;20.77;13.00;;;;;;;;;;6258630;28;20072;-71
2022/04/14 10:56:52;;;;;;;21.63;13.15;;;;;;;;;;6257177;28;20056;-71
2022/04/14 10:59:55;;;;;;;23.92;14.02;;;;;;;;;;6255615;28;20055;-72
2022/04/14 11:03:04;;;;;;;23.63;13.98;;;;;;;;;;6256687;28;20049;-68
2022/04/14 11:06:07;;;;;;;24.25;12.73;;;;;;;;;;6251268;28;20234;-70
2022/04/14 11:09:09;;;;;;;20.13;12.90;;;;;;;;;;6254345;28;20059;-71
2022/04/14 11:12:12;;;;;;;22.08;12.77;;;;;;;;;;6254617;28;20530;-71
2022/04/14 11:15:13;;;;;;;13.43;9.10;;;;;;;;;;6251512;28;20603;-71
2022/04/14 11:18:16;;;;;;;15.48;9.35;;;;;;;;;;6249417;28;20048;-71
2022/04/14 11:21:32;;;;;;;15.88;9.75;;;;;;;;;;6258866;28;20056;-71
2022/04/14 11:24:44;;;;;;;16.33;9.30;;;;;;;;;;6257951;28;20424;-71
2022/04/14 11:28:20;;;;;;;19.83;9.52;;;;;;;;;;6253234;28;20053;-71
2022/04/14 11:38:29;;;;;;;13.82;8.23;;;;;;;;;;6025350;22;20087;-69
2022/04/14 11:41:41;;;;;;;15.45;9.05;;;;;;;;;;6252463;28;20049;-69
2022/04/14 11:44:43;;;;;;;17.98;11.50;;;;;;;;;;6258192;28;20056;-68
2022/04/14 11:47:45;;;;;;;19.20;12.38;;;;;;;;;;6263258;28;20048;-70
2022/04/14 11:50:46;;;;;;;;;;;;;;;;;;6257337;28;20195;-70
2022/04/14 11:53:48;;;;;;;18.00;10.88;;;;;;;;;;6253807;28;19960;-70
2022/04/14 11:56:52;;;;;;;19.70;11.18;;;;;;;;;;6250543;28;20115;-73
2022/04/14 11:59:56;;;;;;;17.45;11.13;;;;;;;;;;6261335;28;20057;-72
2022/04/14 12:03:01;;;;;;;24.13;11.50;;;;;;;;;;6259577;28;20499;-72
2022/04/14 12:06:05;;;;;;;15.82;10.63;;;;;;;;;;6258849;28;20068;-70
2022/04/14 12:09:07;;;;;;;19.95;11.80;;;;;;;;;;6229164;28;20049;-70
2022/04/14 12:12:13;;;;;;;17.58;9.73;;;;;;;;;;6250187;28;20072;-72
2022/04/14 12:15:15;;;;;;;13.93;7.75;;;;;;;;;;6257047;28;20051;-74
2022/04/14 12:18:16;;;;;;;15.20;7.38;;;;;;;;;;6262339;28;20053;-73
2022/04/14 12:21:19;;;;;;;11.45;7.60;;;;;;;;;;6258542;28;20128;-74
2022/04/14 12:24:22;;;;;;;14.32;7.47;;;;;;;;;;6255373;28;20461;-74
2022/04/14 12:27:27;;;;;;;12.68;7.57;;;;;;;;;;6251374;28;20053;-74
2022/04/14 12:30:30;;;;;;;22.15;8.25;;;;;;;;;;6252158;28;20281;-72
2022/04/14 12:33:31;;;;;;;14.95;6.93;;;;;;;;;;6260449;28;20141;-70
2022/04/14 12:36:37;;;;;;;15.30;7.28;;;;;;;;;;6257930;28;20195;-72
2022/04/14 12:39:54;;;;;;;13.60;7.40;;;;;;;;;;6261050;28;20095;-71
2022/04/14 12:42:57;;;;;;;12.02;6.85;;;;;;;;;;6263488;28;20049;-68
2022/04/14 12:45:58;;;;;;;13.50;6.70;;;;;;;;;;6259746;28;20064;-73
2022/04/14 12:49:01;;;;;;;12.82;6.90;;;;;;;;;;6263752;28;20073;-76
2022/04/14 12:52:06;;;;;;;18.98;8.38;;;;;;;;;;6258874;28;20121;-83
2022/04/14 12:55:09;;;;;;;14.43;8.05;;;;;;;;;;6257167;28;20037;-91
2022/04/14 12:58:15;;;;;;;14.20;7.88;;;;;;;;;;6257899;28;20136;-83
2022/04/14 13:01:17;;;;;;;18.98;14.00;;;;;;;;;;6257862;28;20175;-90
2022/04/14 13:04:19;;;;;;;14.50;8.75;;;;;;;;;;6262738;28;20053;-83
2022/04/14 13:07:20;;;;;;;;;;;;;;;;;;6262290;28;20127;-81
2022/04/14 13:10:29;;;;;;;12.27;7.07;;;;;;;;;;6263934;28;20007;-81
2022/04/14 13:13:33;;;;;;;11.68;6.13;;;;;;;;;;6259817;28;20067;-79
2022/04/14 13:16:34;;;;;;;11.65;6.90;;;;;;;;;;6261878;28;20132;-81
2022/04/14 13:19:36;;;;;;;12.02;6.28;;;;;;;;;;6263609;28;20515;-81
2022/04/14 13:22:38;;;;;;;9.98;5.60;;;;;;;;;;6261540;28;20134;-81
2022/04/14 13:25:40;;;;;;;11.52;5.68;;;;;;;;;;6253184;28;20120;-81
2022/04/14 13:28:43;;;;;;;11.88;5.70;;;;;;;;;;6261983;28;20491;-80
2022/04/14 13:31:44;;;;;;;14.52;6.88;;;;;;;;;;6259925;28;20065;-81
2022/04/14 13:34:46;;;;;;;10.48;7.20;;;;;;;;;;6257652;28;20052;-80
2022/04/14 13:37:47;;;;;;;11.90;6.57;;;;;;;;;;6260656;28;20049;-80
2022/04/14 13:40:49;;;;;;;12.50;6.95;;;;;;;;;;6264350;28;20048;-80
2022/04/14 13:43:52;;;;;;;13.02;7.35;;;;;;;;;;6260336;28;20550;-79
2022/04/14 13:46:55;;;;;;;14.80;7.20;;;;;;;;;;6258887;28;20222;-79
2022/04/14 13:49:57;;;;;;;13.13;7.93;;;;;;;;;;6258423;28;20044;-79
2022/04/14 13:52:59;;;;;;;13.85;8.38;;;;;;;;;;6255362;28;20052;-79
2022/04/14 13:56:00;;;;;;;11.15;7.95;;;;;;;;;;6253785;28;20077;-79
2022/04/14 13:59:03;;;;;;;14.83;7.17;;;;;;;;;;6256690;28;20053;-79
2022/04/14 14:02:06;;;;;;;11.30;7.93;;;;;;;;;;6258064;28;20563;-79
2022/04/14 14:05:09;;;;;;;14.68;8.23;;;;;;;;;;6259601;28;20106;-80
2022/04/14 14:08:11;;;;;;;13.63;8.10;;;;;;;;;;6258715;28;20049;-80
2022/04/14 14:11:12;;;;;;;12.30;7.63;;;;;;;;;;6260010;28;20056;-78
2022/04/14 14:14:16;;;;;;;19.23;7.82;;;;;;;;;;6259497;28;20045;-79
2022/04/14 14:17:17;;;;;;;15.43;8.25;;;;;;;;;;6257242;28;20095;-79
2022/04/14 14:20:19;;;;;;;14.30;7.40;;;;;;;;;;6261722;28;20804;-79
2022/04/14 14:23:21;;;;;;;21.73;9.17;;;;;;;;;;6260703;28;20083;-80
2022/04/14 14:26:22;;;;;;;15.85;8.52;;;;;;;;;;6260473;28;20179;-79
2022/04/14 14:29:25;;;;;;;13.03;7.80;;;;;;;;;;6263916;28;20630;-80
2022/04/14 14:32:27;;;;;;;13.90;7.72;;;;;;;;;;6262479;28;20141;-80
2022/04/14 14:35:29;;;;;;;11.48;7.13;;;;;;;;;;6260281;28;20128;-80
2022/04/14 14:38:30;;;;;;;12.43;6.20;;;;;;;;;;6262434;28;20048;-79
2022/04/14 14:41:32;;;;;;;12.77;6.78;;;;;;;;;;6263305;28;20127;-78
2022/04/14 14:44:35;;;;;;;12.07;7.50;;;;;;;;;;6262946;28;20048;-75
2022/04/14 14:47:38;;;;;;;23.10;13.07;;;;;;;;;;6255896;28;20606;-74
2022/04/14 14:50:40;;;;;;;23.27;17.35;;;;;;;;;;6250275;28;20058;-75
2022/04/14 14:53:41;;;;;;;12.52;7.68;;;;;;;;;;6251119;28;20045;-76
2022/04/14 14:56:43;;;;;;;12.73;7.30;;;;;;;;;;6254446;28;20060;-75
2022/04/14 14:59:46;;;;;;;14.40;7.85;;;;;;;;;;6255435;28;20187;-75
2022/04/14 15:02:48;;;;;;;11.38;7.25;;;;;;;;;;6255233;28;20382;-74
2022/04/14 15:05:50;;;;;;;13.75;7.78;;;;;;;;;;6254778;28;20128;-74
2022/04/14 15:08:51;;;;;;;12.63;8.27;;;;;;;;;;6255775;28;20630;-73
2022/04/14 15:11:53;;;;;;;11.25;7.03;;;;;;;;;;6257299;28;20552;-75
2022/04/14 15:14:56;;;;;;;11.68;7.70;;;;;;;;;;6260698;28;20488;-77
2022/04/14 15:17:59;;;;;;;13.38;8.48;;;;;;;;;;6259843;28;20072;-77
2022/04/14 15:21:00;;;;;;;11.90;7.38;;;;;;;;;;6257881;28;20381;-77
2022/04/14 15:24:02;;;;;;;12.75;7.28;;;;;;;;;;6258020;28;20124;-76
2022/04/14 15:27:04;;;;;;;13.10;9.88;;;;;;;;;;6261222;28;20132;-75
2022/04/14 15:30:07;;;;;;;;;;;;;;;;;;6260714;28;20045;-74
2022/04/14 15:33:09;;;;;;;43.00;28.85;;;;;;;;;;6256878;28;19975;-78
2022/04/14 15:36:11;;;;;;;;;;;;;;;;;;6262361;28;20385;-80
2022/04/14 15:39:12;;;;;;;12.70;7.97;;;;;;;;;;6261161;28;20043;-81
2022/04/14 15:42:14;;;;;;;12.85;7.50;;;;;;;;;;6264437;28;20134;-73
2022/04/14 15:45:17;;;;;;;17.70;7.93;;;;;;;;;;6260658;28;20072;-77
2022/04/14 15:48:18;;;;;;;10.43;6.78;;;;;;;;;;6259008;28;20084;-79
2022/04/14 15:51:20;;;;;;;11.25;6.57;;;;;;;;;;6247330;28;20124;-72
2022/04/14 15:54:22;;;;;;;12.40;6.97;;;;;;;;;;6248058;28;20465;-76
2022/04/14 15:57:23;;;;;;;;;;;;;;;;;;6244269;28;20061;-77
2022/04/14 16:00:26;;;;;;;13.73;8.30;;;;;;;;;;6248218;28;19937;-77
2022/04/14 16:03:28;;;;;;;15.20;8.45;;;;;;;;;;6247773;28;20650;-77
2022/04/14 16:06:30;;;;;;;9.63;6.90;;;;;;;;;;6251445;28;20146;-76
2022/04/14 16:12:02;;;;;;;11.35;6.65;;;;;;;;;;6255107;28;20127;-77
2022/04/14 16:12:54;;;;;;;12.23;6.57;;;;;;;;;;6258739;28;20068;-77
2022/04/14 16:15:57;;;;;;;14.10;7.20;;;;;;;;;;6258958;28;20041;-77
2022/04/14 16:18:59;;;;;;;12.77;6.85;;;;;;;;;;6255260;28;20051;-77
2022/04/14 16:22:00;;;;;;;12.35;6.90;;;;;;;;;;6260541;28;20199;-77
2022/04/14 16:25:02;;;;;;;13.43;7.78;;;;;;;;;;6258002;28;20049;-75
2022/04/14 16:28:06;;;;;;;15.35;7.47;;;;;;;;;;6259967;28;20121;-74
2022/04/14 16:31:09;;;;;;;15.52;7.82;;;;;;;;;;6262274;28;20129;-75
2022/04/14 16:34:12;;;;;;;14.55;8.77;;;;;;;;;;6264065;28;20041;-77
2022/04/14 16:37:14;;;;;;;14.27;7.38;;;;;;;;;;6260544;28;20480;-74
2022/04/14 16:40:16;;;;;;;14.35;7.60;;;;;;;;;;6260619;28;20120;-73
2022/04/14 16:43:18;;;;;;;11.27;7.10;;;;;;;;;;6261004;28;20107;-74
2022/04/14 16:46:21;;;;;;;13.60;6.85;;;;;;;;;;6263804;28;20061;-75
2022/04/14 16:49:22;;;;;;;10.85;6.43;;;;;;;;;;6251078;28;20520;-77
2022/04/14 16:52:24;;;;;;;30.45;22.27;;;;;;;;;;6256851;28;20077;-72
2022/04/14 16:55:26;;;;;;;58.47;35.22;;;;;;;;;;6259855;28;20052;-73
2022/04/14 16:58:28;;;;;;;19.35;11.15;;;;;;;;;;6263129;28;20049;-77
2022/04/14 17:01:31;;;;;;;12.60;6.25;;;;;;;;;;6261986;28;20056;-74
2022/04/14 17:04:33;;;;;;;11.10;5.25;;;;;;;;;;6262427;28;20146;-73
2022/04/14 17:07:35;;;;;;;9.38;5.07;;;;;;;;;;6262253;28;20059;-75
2022/04/14 17:10:37;;;;;;;10.27;5.63;;;;;;;;;;6260101;28;20392;-75
2022/04/14 17:13:38;;;;;;;10.88;5.15;;;;;;;;;;6264110;28;20077;-74
2022/04/14 17:16:43;;;;;;;19.00;5.53;;;;;;;;;;6264664;28;20140;-75
2022/04/14 17:19:45;;;;;;;12.23;5.80;;;;;;;;;;6261319;28;20489;-76
2022/04/14 17:26:05;;;;;;;31.05;17.80;;;;;;;;;;6257452;28;20140;-76
2022/04/14 17:29:07;;;;;;;12.80;6.55;;;;;;;;;;6262013;28;20644;-76
2022/04/14 17:32:11;;;;;;;21.63;12.05;;;;;;;;;;6262646;28;20103;-76
2022/04/14 17:35:13;;;;;;;10.13;5.10;;;;;;;;;;6261120;28;20586;-77
2022/04/14 17:38:15;;;;;;;18.27;7.55;;;;;;;;;;6264658;28;20511;-75
2022/04/14 17:41:17;;;;;;;14.35;5.90;;;;;;;;;;6264741;28;20190;-76
2022/04/14 17:44:18;;;;;;;12.32;5.90;;;;;;;;;;6260833;28;20045;-76
2022/04/14 17:47:21;;;;;;;13.63;6.15;;;;;;;;;;6252546;28;20128;-76
2022/04/14 17:50:23;;;;;;;18.23;6.32;;;;;;;;;;6262324;28;20060;-75
2022/04/14 17:53:24;;;;;;;12.93;6.05;;;;;;;;;;6260172;28;20061;-76
2022/04/14 17:56:26;;;;;;;12.98;6.18;;;;;;;;;;6256247;28;20119;-76
2022/04/14 17:59:28;;;;;;;15.65;5.97;;;;;;;;;;6256984;28;20106;-77
2022/04/14 18:02:31;;;;;;;12.35;6.60;;;;;;;;;;6256409;28;20065;-75
2022/04/14 18:05:32;;;;;;;34.00;21.02;;;;;;;;;;6260604;28;20123;-76